createdAt,value
2023-04-23T00:01:20.670Z,98720.22
2023-04-23T00:03:50.162Z,98722.59
2023-04-23T00:06:17.906Z,98712.91
2023-04-23T00:08:45.064Z,98714.94
2023-04-23T00:11:12.060Z,98710.03
2023-04-23T00:13:40.840Z,98726.06
2023-04-23T00:16:08.324Z,98714.28
2023-04-23T00:18:35.034Z,98716.69
2023-04-23T00:21:01.646Z,98718.06
2023-04-23T00:23:29.141Z,98727.59
2023-04-23T00:25:56.075Z,98711.63
2023-04-23T00:28:22.709Z,98710.91
2023-04-23T00:30:49.469Z,98710.31
2023-04-23T00:33:16.201Z,98705.91
2023-04-23T00:35:42.888Z,98697.22
2023-04-23T00:38:09.640Z,98703.38
2023-04-23T00:40:36.432Z,98682.31
2023-04-23T00:43:03.190Z,98692.31
2023-04-23T00:45:29.930Z,98689.28
2023-04-23T00:47:56.678Z,98688.94
2023-04-23T00:50:24.985Z,98690.09
2023-04-23T00:52:53.563Z,98687.03
2023-04-23T00:55:21.366Z,98679.44
2023-04-23T00:57:50.553Z,98683.75
2023-04-23T01:00:18.742Z,98676.00
2023-04-23T01:02:47.694Z,98668.53
2023-04-23T01:05:17.434Z,98665.75
2023-04-23T01:07:45.491Z,98666.56
2023-04-23T01:10:12.597Z,98668.44
2023-04-23T01:12:39.767Z,98665.56
2023-04-23T01:15:08.927Z,98658.56
2023-04-23T01:17:35.760Z,98676.53
2023-04-23T01:20:02.530Z,98656.13
2023-04-23T01:22:29.201Z,98660.81
2023-04-23T01:24:56.404Z,98655.66
2023-04-23T01:27:25.024Z,98639.81
2023-04-23T01:29:52.269Z,98647.09
2023-04-23T01:32:19.613Z,98640.28
2023-04-23T01:34:49.706Z,98633.81
2023-04-23T01:37:17.524Z,98639.19
2023-04-23T01:39:44.201Z,98644.56
2023-04-23T01:42:11.198Z,98648.69
2023-04-23T01:44:38.103Z,98657.56
2023-04-23T01:47:06.962Z,98658.50
2023-04-23T01:49:35.810Z,98654.84
2023-04-23T01:52:02.546Z,98666.69
2023-04-23T01:54:30.895Z,98642.53
2023-04-23T01:56:59.010Z,98650.50
2023-04-23T01:59:26.091Z,98645.75
2023-04-23T02:01:52.794Z,98640.59
2023-04-23T02:04:19.933Z,98634.56
2023-04-23T02:06:49.779Z,98641.63
2023-04-23T02:09:16.699Z,98632.41
2023-04-23T02:11:45.186Z,98632.50
2023-04-23T02:14:12.222Z,98639.59
2023-04-23T02:16:39.531Z,98628.44
2023-04-23T02:19:06.199Z,98637.13
2023-04-23T02:21:32.978Z,98631.66
2023-04-23T02:23:59.642Z,98633.00
2023-04-23T02:26:28.966Z,98634.75
2023-04-23T02:28:57.145Z,98636.84
2023-04-23T02:31:24.037Z,98627.56
2023-04-23T02:33:53.634Z,98628.97
2023-04-23T02:36:20.491Z,98633.09
2023-04-23T02:38:49.237Z,98630.22
2023-04-23T02:41:15.949Z,98636.97
2023-04-23T02:43:42.631Z,98634.47
2023-04-23T02:46:09.993Z,98620.59
2023-04-23T02:48:41.936Z,98619.00
2023-04-23T02:51:12.013Z,98619.94
2023-04-23T02:53:38.866Z,98621.88
2023-04-23T02:56:05.733Z,98622.97
2023-04-23T02:58:32.472Z,98615.56
2023-04-23T03:01:01.024Z,98609.75
2023-04-23T03:03:31.842Z,98607.69
2023-04-23T03:06:00.657Z,98601.72
2023-04-23T03:08:28.143Z,98609.75
2023-04-23T03:10:55.162Z,98602.56
2023-04-23T03:13:23.799Z,98605.44
2023-04-23T03:15:51.118Z,98604.72
2023-04-23T03:18:17.801Z,98605.88
2023-04-23T03:20:44.595Z,98606.00
2023-04-23T03:23:11.194Z,98596.50
2023-04-23T03:25:39.412Z,98590.69
2023-04-23T03:28:07.883Z,98588.38
2023-04-23T03:30:34.651Z,98578.84
2023-04-23T03:33:02.546Z,98575.97
2023-04-23T03:35:29.311Z,98571.47
2023-04-23T03:37:56.062Z,98564.38
2023-04-23T03:40:23.205Z,98556.72
2023-04-23T03:42:49.924Z,98554.13
2023-04-23T03:45:19.664Z,98551.59
2023-04-23T03:47:46.336Z,98538.09
2023-04-23T03:50:13.509Z,98544.75
2023-04-23T03:52:40.729Z,98556.50
2023-04-23T03:55:08.592Z,98559.22
2023-04-23T03:57:36.599Z,98555.25
2023-04-23T04:00:04.518Z,98544.16
2023-04-23T04:02:31.326Z,98549.97
2023-04-23T04:04:58.258Z,98531.25
2023-04-23T04:07:25.046Z,98524.38
2023-04-23T04:09:51.660Z,98523.47
2023-04-23T04:12:18.348Z,98506.25
2023-04-23T04:14:45.946Z,98523.78
2023-04-23T04:17:14.990Z,98515.38
2023-04-23T04:19:42.930Z,98512.72
2023-04-23T04:22:10.010Z,98509.25
2023-04-23T04:24:38.323Z,98517.72
2023-04-23T04:27:05.964Z,98496.06
2023-04-23T04:29:33.472Z,98498.13
2023-04-23T04:32:01.353Z,98502.34
2023-04-23T04:34:28.302Z,98497.38
2023-04-23T04:36:54.887Z,98496.53
2023-04-23T04:39:21.472Z,98501.69
2023-04-23T04:41:48.559Z,98505.56
2023-04-23T04:44:16.495Z,98498.63
2023-04-23T04:46:43.289Z,98487.19
2023-04-23T04:49:12.652Z,98487.19
2023-04-23T04:51:40.632Z,98481.81
2023-04-23T04:54:07.988Z,98481.03
2023-04-23T04:56:35.435Z,98480.28
2023-04-23T04:59:02.647Z,98468.88
2023-04-23T05:01:29.748Z,98465.63
2023-04-23T05:03:57.159Z,98473.41
2023-04-23T05:06:24.104Z,98461.78
2023-04-23T05:08:51.072Z,98460.19
2023-04-23T05:11:20.654Z,98463.91
2023-04-23T05:13:48.080Z,98471.25
2023-04-23T05:16:16.848Z,98475.16
2023-04-23T05:18:44.966Z,98468.03
2023-04-23T05:21:11.632Z,98464.16
2023-04-23T05:23:39.781Z,98460.28
2023-04-23T05:26:06.507Z,98445.47
2023-04-23T05:28:33.162Z,98445.41
2023-04-23T05:31:01.616Z,98447.72
2023-04-23T05:33:33.546Z,98448.53
2023-04-23T05:36:06.356Z,98446.44
2023-04-23T05:38:33.327Z,98441.91
2023-04-23T05:41:00.102Z,98440.66
2023-04-23T05:43:26.763Z,98440.16
2023-04-23T05:45:53.422Z,98441.41
2023-04-23T05:48:22.021Z,98429.94
2023-04-23T05:50:49.676Z,98436.09
2023-04-23T05:53:16.628Z,98440.84
2023-04-23T05:55:43.790Z,98442.66
2023-04-23T05:58:10.500Z,98423.34
2023-04-23T06:00:39.013Z,98429.00
2023-04-23T06:03:06.293Z,98421.00
2023-04-23T06:05:33.132Z,98424.66
2023-04-23T06:07:59.797Z,98422.28
2023-04-23T06:10:26.448Z,98428.41
2023-04-23T06:12:55.418Z,98426.06
2023-04-23T06:15:28.356Z,98428.69
2023-04-23T06:17:55.058Z,98426.81
2023-04-23T06:20:23.933Z,98432.03
2023-04-23T06:22:50.521Z,98437.84
2023-04-23T06:25:17.123Z,98435.91
2023-04-23T06:27:43.800Z,98437.19
2023-04-23T06:30:10.796Z,98439.81
2023-04-23T06:32:37.672Z,98422.03
2023-04-23T06:35:06.550Z,98425.63
2023-04-23T06:37:33.512Z,98426.50
2023-04-23T06:40:01.849Z,98427.53
2023-04-23T06:42:28.561Z,98423.25
2023-04-23T06:44:56.937Z,98416.75
2023-04-23T06:47:23.589Z,98414.31
2023-04-23T06:49:50.241Z,98408.59
2023-04-23T06:52:18.423Z,98421.53
2023-04-23T06:54:45.382Z,98407.41
2023-04-23T06:57:12.098Z,98412.63
2023-04-23T06:59:38.739Z,98415.44
2023-04-23T07:02:05.368Z,98409.84
2023-04-23T07:04:32.092Z,98411.69
2023-04-23T07:06:58.968Z,98405.75
2023-04-23T07:09:26.487Z,98402.06
2023-04-23T07:11:53.161Z,98404.31
2023-04-23T07:14:19.834Z,98406.38
2023-04-23T07:16:46.606Z,98403.47
2023-04-23T07:19:13.345Z,98412.19
2023-04-23T07:21:40.495Z,98420.47
2023-04-23T07:24:07.503Z,98407.09
2023-04-23T07:26:35.287Z,98400.94
2023-04-23T07:29:03.068Z,98403.94
2023-04-23T07:31:29.761Z,98399.56
2023-04-23T07:33:56.772Z,98403.16
2023-04-23T07:36:23.502Z,98398.78
2023-04-23T07:38:51.144Z,98395.97
2023-04-23T07:41:18.454Z,98384.59
2023-04-23T07:43:45.356Z,98385.59
2023-04-23T07:46:12.587Z,98386.72
2023-04-23T07:48:39.283Z,98383.69
2023-04-23T07:51:08.212Z,98398.97
2023-04-23T07:53:37.353Z,98393.38
2023-04-23T07:56:04.006Z,98395.38
2023-04-23T07:58:32.062Z,98392.69
2023-04-23T08:00:58.783Z,98391.28
2023-04-23T08:03:25.588Z,98395.56
2023-04-23T08:05:52.413Z,98386.41
2023-04-23T08:08:19.076Z,98390.38
2023-04-23T08:10:46.449Z,98393.59
2023-04-23T08:13:13.063Z,98388.00
2023-04-23T08:15:40.062Z,98383.91
2023-04-23T08:18:06.851Z,98381.03
2023-04-23T08:20:34.501Z,98371.88
2023-04-23T08:23:01.538Z,98368.88
2023-04-23T08:25:28.174Z,98365.28
2023-04-23T08:27:54.813Z,98362.28
2023-04-23T08:30:21.624Z,98361.38
2023-04-23T08:32:51.551Z,98358.91
2023-04-23T08:35:19.889Z,98364.47
2023-04-23T08:37:48.508Z,98364.88
2023-04-23T08:40:15.719Z,98371.25
2023-04-23T08:43:02.410Z,98370.66
2023-04-23T08:45:30.693Z,98367.28
2023-04-23T08:48:02.710Z,98349.34
2023-04-23T08:50:31.003Z,98346.94
2023-04-23T08:53:00.763Z,98359.09
2023-04-23T08:55:27.684Z,98357.31
2023-04-23T08:57:54.405Z,98352.72
2023-04-23T09:00:23.376Z,98350.72
2023-04-23T09:02:50.669Z,98355.00
2023-04-23T09:05:19.637Z,98354.69
2023-04-23T09:07:46.264Z,98356.09
2023-04-23T09:10:16.894Z,98352.31
2023-04-23T09:12:47.297Z,98341.13
2023-04-23T09:15:14.035Z,98351.91
2023-04-23T09:17:43.996Z,98347.53
2023-04-23T09:20:12.394Z,98336.63
2023-04-23T09:22:39.053Z,98340.75
2023-04-23T09:25:07.041Z,98323.97
2023-04-23T09:27:33.697Z,98332.53
2023-04-23T09:30:07.463Z,98340.53
2023-04-23T09:32:35.318Z,98326.97
2023-04-23T09:35:10.199Z,98318.03
2023-04-23T09:37:38.823Z,98308.06
2023-04-23T09:40:09.527Z,98308.41
2023-04-23T09:42:37.220Z,98316.63
2023-04-23T09:45:09.081Z,98302.94
2023-04-23T09:47:39.060Z,98300.03
2023-04-23T09:50:07.285Z,98295.19
2023-04-23T09:52:34.496Z,98300.44
2023-04-23T09:55:03.000Z,98292.28
2023-04-23T09:57:29.684Z,98275.75
2023-04-23T10:00:07.331Z,98237.59
2023-04-23T10:02:45.989Z,98218.97
2023-04-23T10:05:24.912Z,98216.53
2023-04-23T10:07:56.505Z,98219.91
2023-04-23T10:10:23.788Z,98232.53
2023-04-23T10:12:55.590Z,98225.75
2023-04-23T10:15:25.451Z,98213.16
2023-04-23T10:17:52.708Z,98193.88
2023-04-23T10:20:21.117Z,98196.31
2023-04-23T10:22:48.298Z,98193.63
2023-04-23T10:25:15.843Z,98185.41
2023-04-23T10:27:52.030Z,98190.09
2023-04-23T10:30:20.727Z,98181.22
2023-04-23T10:32:49.383Z,98177.97
2023-04-23T10:35:17.980Z,98178.91
2023-04-23T10:37:48.630Z,98176.44
2023-04-23T10:40:22.007Z,98166.81
2023-04-23T10:42:51.155Z,98155.09
2023-04-23T10:45:25.258Z,98154.66
2023-04-23T10:47:56.041Z,98130.06
2023-04-23T10:50:30.772Z,98141.25
2023-04-23T10:52:58.506Z,98125.72
2023-04-23T10:55:28.748Z,98107.69
2023-04-23T10:58:07.546Z,98118.59
2023-04-23T11:00:45.114Z,98126.31
2023-04-23T11:03:43.234Z,98133.16
2023-04-23T11:06:19.821Z,98116.22
2023-04-23T11:08:54.239Z,98109.19
2023-04-23T11:11:41.475Z,98127.75
2023-04-23T11:14:16.303Z,98135.38
2023-04-23T11:16:43.183Z,98126.31
2023-04-23T11:19:17.285Z,98136.03
2023-04-23T11:22:14.108Z,98133.06
2023-04-23T11:24:43.070Z,98140.31
2023-04-23T11:27:15.059Z,98139.50
2023-04-23T11:29:45.148Z,98134.28
2023-04-23T11:32:14.259Z,98126.22
2023-04-23T11:34:43.837Z,98125.44
2023-04-23T11:37:17.247Z,98123.59
2023-04-23T11:39:47.108Z,98113.75
2023-04-23T11:42:14.999Z,98126.41
2023-04-23T11:44:43.053Z,98127.50
2023-04-23T11:47:14.356Z,98133.03
2023-04-23T11:49:45.048Z,98129.06
2023-04-23T11:52:12.904Z,98113.94
2023-04-23T11:54:44.051Z,98096.63
2023-04-23T11:57:10.819Z,98075.78
2023-04-23T11:59:37.651Z,98064.97
2023-04-23T12:02:04.366Z,98048.66
2023-04-23T12:04:32.141Z,98041.00
2023-04-23T12:06:59.578Z,98033.03
2023-04-23T12:09:29.826Z,98027.56
2023-04-23T12:11:58.570Z,98012.03
2023-04-23T12:14:30.183Z,97996.75
2023-04-23T12:16:57.765Z,97986.38
2023-04-23T12:19:29.498Z,97983.72
2023-04-23T12:21:58.510Z,98002.38
2023-04-23T12:24:32.222Z,97996.38
2023-04-23T12:27:02.864Z,97995.41
2023-04-23T12:29:30.924Z,97980.03
2023-04-23T12:32:00.845Z,97973.28
2023-04-23T12:34:27.593Z,97958.34
2023-04-23T12:36:56.852Z,97959.72
2023-04-23T12:39:32.740Z,97938.81
2023-04-23T12:42:11.826Z,97925.53
2023-04-23T12:44:39.024Z,97912.03
2023-04-23T12:47:13.064Z,97901.16
2023-04-23T12:49:40.853Z,97907.53
2023-04-23T12:52:08.854Z,97903.22
2023-04-23T12:54:40.526Z,97892.16
2023-04-23T12:57:09.210Z,97886.19
2023-04-23T12:59:35.828Z,97900.66
2023-04-23T13:02:04.051Z,97883.00
2023-04-23T13:04:32.676Z,97886.16
2023-04-23T13:06:59.527Z,97891.00
2023-04-23T13:09:27.945Z,97874.81
2023-04-23T13:11:55.398Z,97873.03
2023-04-23T13:14:23.835Z,97863.22
2023-04-23T13:16:51.030Z,97846.34
2023-04-23T13:19:19.346Z,97843.50
2023-04-23T13:21:46.004Z,97837.63
2023-04-23T13:24:14.497Z,97828.03
2023-04-23T13:26:42.673Z,97821.69
2023-04-23T13:29:09.330Z,97816.47
2023-04-23T13:31:35.981Z,97813.78
2023-04-23T13:34:03.257Z,97815.66
2023-04-23T13:36:30.168Z,97814.41
2023-04-23T13:38:58.737Z,97822.03
2023-04-23T13:41:25.482Z,97834.00
2023-04-23T13:43:52.783Z,97834.69
2023-04-23T13:46:21.593Z,97834.03
2023-04-23T13:48:48.253Z,97825.75
2023-04-23T13:51:33.218Z,97814.56
2023-04-23T13:54:01.845Z,97821.81
2023-04-23T13:56:32.051Z,97823.25
2023-04-23T13:59:18.922Z,97818.84
2023-04-23T14:01:49.868Z,97818.81
2023-04-23T14:04:18.149Z,97817.84
2023-04-23T14:06:45.536Z,97816.94
2023-04-23T14:09:12.181Z,97826.91
2023-04-23T14:11:40.575Z,97821.50
2023-04-23T14:14:07.958Z,97823.44
2023-04-23T14:16:35.615Z,97833.69
2023-04-23T14:19:02.378Z,97828.00
2023-04-23T14:21:30.642Z,97838.91
2023-04-23T14:24:09.753Z,97843.25
2023-04-23T14:29:11.385Z,97837.13
2023-04-23T14:31:38.522Z,97829.38
2023-04-23T14:34:06.397Z,97821.47
2023-04-23T14:36:33.094Z,97823.69
2023-04-23T14:39:04.863Z,97822.22
2023-04-23T14:41:32.830Z,97811.50
2023-04-23T14:44:04.122Z,97819.69
2023-04-23T14:46:31.035Z,97815.13
2023-04-23T14:48:57.871Z,97810.09
2023-04-23T14:51:26.271Z,97825.69
2023-04-23T14:53:54.718Z,97811.94
2023-04-23T14:56:25.617Z,97803.13
2023-04-23T14:58:52.213Z,97809.09
2023-04-23T15:01:18.929Z,97789.00
2023-04-23T15:03:46.540Z,97790.25
2023-04-23T15:06:13.492Z,97784.22
2023-04-23T15:08:40.249Z,97767.78
2023-04-23T15:11:13.110Z,97768.59
2023-04-23T15:14:08.697Z,97763.94
2023-04-23T15:19:09.081Z,97764.41
2023-04-23T15:21:36.633Z,97760.41
2023-04-23T15:24:05.034Z,97755.72
2023-04-23T15:26:33.670Z,97749.06
2023-04-23T15:29:00.625Z,97743.97
2023-04-23T15:31:27.318Z,97745.91
2023-04-23T15:33:53.925Z,97741.44
2023-04-23T15:36:20.718Z,97730.53
2023-04-23T15:38:48.976Z,97728.22
2023-04-23T15:41:15.825Z,97725.31
2023-04-23T15:43:42.459Z,97718.84
2023-04-23T15:46:09.183Z,97722.97
2023-04-23T15:48:35.832Z,97715.19
2023-04-23T15:51:04.220Z,97701.91
2023-04-23T15:53:31.395Z,97701.94
2023-04-23T15:55:58.916Z,97691.78
2023-04-23T15:58:25.999Z,97679.31
2023-04-23T16:00:52.754Z,97675.97
2023-04-23T16:03:19.650Z,97670.56
2023-04-23T16:05:49.805Z,97662.53
2023-04-23T16:08:17.408Z,97669.66
2023-04-23T16:10:44.167Z,97672.59
2023-04-23T16:13:10.938Z,97662.34
2023-04-23T16:15:37.674Z,97660.63
2023-04-23T16:18:06.132Z,97667.69
2023-04-23T16:20:33.418Z,97655.53
2023-04-23T16:23:01.702Z,97659.19
2023-04-23T16:25:28.420Z,97661.81
2023-04-23T16:27:57.867Z,97652.22
2023-04-23T16:30:24.766Z,97661.69
2023-04-23T16:32:51.638Z,97658.31
2023-04-23T16:35:18.400Z,97642.72
2023-04-23T16:37:45.446Z,97652.97
2023-04-23T16:40:15.260Z,97638.56
2023-04-23T16:42:43.406Z,97632.75
2023-04-23T16:45:10.540Z,97643.00
2023-04-23T16:47:37.881Z,97641.25
2023-04-23T16:50:04.752Z,97635.44
2023-04-23T16:52:32.960Z,97626.06
2023-04-23T16:55:00.250Z,97614.53
2023-04-23T16:57:29.121Z,97604.44
2023-04-23T16:59:56.433Z,97599.81
2023-04-23T17:02:23.181Z,97586.69
2023-04-23T17:04:50.007Z,97584.34
2023-04-23T17:07:17.154Z,97578.63
2023-04-23T17:09:45.556Z,97576.41
2023-04-23T17:12:12.186Z,97567.31
2023-04-23T17:14:38.849Z,97565.34
2023-04-23T17:17:05.608Z,97552.56
2023-04-23T17:19:32.259Z,97537.09
2023-04-23T17:21:59.029Z,97540.84
2023-04-23T17:24:27.346Z,97530.13
2023-04-23T17:26:53.961Z,97502.16
2023-04-23T17:29:20.656Z,97497.56
2023-04-23T17:31:47.377Z,97496.94
2023-04-23T17:34:14.057Z,97495.69
2023-04-23T17:36:40.650Z,97480.34
2023-04-23T17:39:09.115Z,97494.38
2023-04-23T17:41:35.813Z,97477.66
2023-04-23T17:44:02.504Z,97470.66
2023-04-23T17:46:29.230Z,97462.47
2023-04-23T17:48:56.158Z,97455.66
2023-04-23T17:51:22.776Z,97456.28
2023-04-23T17:53:50.590Z,97438.59
2023-04-23T17:56:17.709Z,97455.97
2023-04-23T17:58:44.435Z,97460.38
2023-04-23T18:01:11.595Z,97453.44
2023-04-23T18:03:39.870Z,97455.81
2023-04-23T18:06:08.485Z,97461.47
2023-04-23T18:08:37.301Z,97458.00
2023-04-23T18:11:07.128Z,97463.06
2023-04-23T18:13:34.103Z,97462.41
2023-04-23T18:16:01.867Z,97457.69
2023-04-23T18:18:28.613Z,97462.72
2023-04-23T18:20:55.319Z,97457.03
2023-04-23T18:23:22.326Z,97449.66
2023-04-23T18:25:49.124Z,97452.94
2023-04-23T18:28:16.128Z,97450.09
2023-04-23T18:30:42.826Z,97444.25
2023-04-23T18:33:15.689Z,97447.41
2023-04-23T18:35:43.479Z,97448.63
2023-04-23T18:38:11.544Z,97449.28
2023-04-23T18:40:39.580Z,97457.03
2023-04-23T18:43:06.569Z,97438.66
2023-04-23T18:45:34.536Z,97426.69
2023-04-23T18:48:28.812Z,97424.78
2023-04-23T18:50:57.871Z,97427.59
2023-04-23T18:53:24.595Z,97435.84
2023-04-23T18:55:53.143Z,97439.28
2023-04-23T18:58:19.815Z,97441.75
2023-04-23T19:00:46.757Z,97445.06
2023-04-23T19:03:25.941Z,97437.06
2023-04-23T19:05:53.795Z,97452.16
2023-04-23T19:08:20.678Z,97442.03
2023-04-23T19:10:47.313Z,97433.56
2023-04-23T19:13:15.225Z,97444.72
2023-04-23T19:15:41.886Z,97441.38
2023-04-23T19:18:08.671Z,97429.44
2023-04-23T19:20:36.082Z,97435.53
2023-04-23T19:23:04.950Z,97438.97
2023-04-23T19:25:31.653Z,97424.38
2023-04-23T19:27:59.653Z,97435.84
2023-04-23T19:30:26.297Z,97434.38
2023-04-23T19:32:52.952Z,97418.03
2023-04-23T19:35:19.601Z,97433.94
2023-04-23T19:37:47.213Z,97429.66
2023-04-23T19:40:16.003Z,97450.03
2023-04-23T19:42:43.384Z,97453.00
2023-04-23T19:45:10.583Z,97443.34
2023-04-23T19:47:40.312Z,97456.59
2023-04-23T19:50:07.796Z,97456.31
2023-04-23T19:52:34.766Z,97462.66
2023-04-23T19:55:02.021Z,97440.44
2023-04-23T19:57:30.636Z,97432.81
2023-04-23T19:59:57.226Z,97438.84
2023-04-23T20:02:23.956Z,97424.22
2023-04-23T20:04:50.730Z,97416.25
2023-04-23T20:07:17.392Z,97416.00
2023-04-23T20:09:44.346Z,97414.69
2023-04-23T20:12:13.516Z,97421.25
2023-04-23T20:14:41.293Z,97410.66
2023-04-23T20:17:08.071Z,97403.38
2023-04-23T20:19:34.818Z,97386.41
2023-04-23T20:22:02.518Z,97376.31
2023-04-23T20:24:29.304Z,97375.00
2023-04-23T20:26:56.601Z,97372.16
2023-04-23T20:29:24.718Z,97367.53
2023-04-23T20:31:51.319Z,97355.31
2023-04-23T20:34:18.087Z,97348.03
2023-04-23T20:36:47.156Z,97332.81
2023-04-23T20:39:14.740Z,97332.47
2023-04-23T20:41:41.521Z,97328.34
2023-04-23T20:44:09.114Z,97331.34
2023-04-23T20:46:36.923Z,97324.41
2023-04-23T20:49:04.326Z,97323.59
2023-04-23T20:51:34.778Z,97322.03
2023-04-23T20:54:02.675Z,97324.41
2023-04-23T20:56:31.159Z,97318.88
2023-04-23T20:58:59.130Z,97312.41
2023-04-23T21:01:26.219Z,97300.31
2023-04-23T21:03:53.777Z,97302.44
2023-04-23T21:06:21.695Z,97260.06
2023-04-23T21:08:48.693Z,97252.22
2023-04-23T21:11:19.387Z,97249.03
2023-04-23T21:13:48.523Z,97253.44
2023-04-23T21:16:15.527Z,97251.09
2023-04-23T21:18:44.878Z,97243.84
2023-04-23T21:21:11.518Z,97237.22
2023-04-23T21:23:38.141Z,97237.22
2023-04-23T21:26:06.062Z,97223.22
2023-04-23T21:28:32.764Z,97230.28
2023-04-23T21:31:08.868Z,97236.09
2023-04-23T21:33:35.600Z,97221.78
2023-04-23T21:36:02.208Z,97225.84
2023-04-23T21:38:28.820Z,97230.88
2023-04-23T21:40:56.939Z,97216.56
2023-04-23T21:43:24.450Z,97225.84
2023-04-23T21:45:52.250Z,97234.03
2023-04-23T21:48:18.831Z,97234.22
2023-04-23T21:50:45.511Z,97229.97
2023-04-23T21:53:13.172Z,97234.84
2023-04-23T21:55:40.451Z,97226.19
2023-04-23T21:58:17.197Z,97213.44
2023-04-23T22:00:56.550Z,97227.91
2023-04-23T22:03:35.951Z,97232.47
2023-04-23T22:06:05.895Z,97219.25
2023-04-23T22:08:33.599Z,97226.63
2023-04-23T22:11:00.651Z,97222.06
2023-04-23T22:13:27.467Z,97217.06
2023-04-23T22:15:54.063Z,97234.53
2023-04-23T22:18:20.759Z,97244.28
2023-04-23T22:20:50.801Z,97243.00
2023-04-23T22:23:17.384Z,97239.72
2023-04-23T22:25:44.847Z,97253.09
2023-04-23T22:28:12.100Z,97248.53
2023-04-23T22:30:40.054Z,97239.91
2023-04-23T22:33:06.656Z,97243.78
2023-04-23T22:35:33.437Z,97244.41
2023-04-23T22:38:00.393Z,97231.19
2023-04-23T22:40:27.121Z,97246.81
2023-04-23T22:42:54.925Z,97255.97
2023-04-23T22:45:21.578Z,97257.84
2023-04-23T22:47:49.435Z,97256.09
2023-04-23T22:50:17.629Z,97266.94
2023-04-23T22:52:44.573Z,97263.63
2023-04-23T22:55:11.784Z,97265.56
2023-04-23T22:57:38.561Z,97272.91
2023-04-23T23:00:07.741Z,97273.50
2023-04-23T23:02:34.488Z,97268.25
2023-04-23T23:05:02.619Z,97275.31
2023-04-23T23:07:29.216Z,97285.97
2023-04-23T23:09:58.002Z,97279.53
2023-04-23T23:12:24.665Z,97278.31
2023-04-23T23:14:52.573Z,97288.34
2023-04-23T23:17:19.209Z,97281.09
2023-04-23T23:19:45.812Z,97280.06
2023-04-23T23:22:12.497Z,97301.13
2023-04-23T23:24:39.112Z,97308.97
2023-04-23T23:27:06.017Z,97306.31
2023-04-23T23:29:32.625Z,97296.59
2023-04-23T23:31:59.945Z,97301.88
2023-04-23T23:34:26.908Z,97305.66
2023-04-23T23:36:53.625Z,97296.59
2023-04-23T23:39:20.540Z,97306.38
2023-04-23T23:41:48.673Z,97312.63
2023-04-23T23:44:17.794Z,97315.97
2023-04-23T23:46:44.487Z,97328.88
2023-04-23T23:49:11.392Z,97332.91
2023-04-23T23:51:38.166Z,97334.50
2023-04-23T23:54:04.825Z,97338.34
2023-04-23T23:56:31.810Z,97351.06
2023-04-23T23:58:58.460Z,97345.81
